sensor_id;sensor_type;location;lat;lon;timestamp;P1;durP1;ratioP1;P2;durP2;ratioP2
49828;SDS011;35723;51.194;5.112;2024-02-26T00:00:38;7.32;;;3.38;;
49828;SDS011;35723;51.194;5.112;2024-02-26T00:03:03;9.35;;;3.55;;
49828;SDS011;35723;51.194;5.112;2024-02-26T00:05:29;10.02;;;3.38;;
49828;SDS011;35723;51.194;5.112;2024-02-26T00:07:56;6.38;;;3.00;;
49828;SDS011;35723;51.194;5.112;2024-02-26T00:10:22;9.05;;;3.20;;
49828;SDS011;35723;51.194;5.112;2024-02-26T00:12:47;8.45;;;3.38;;
49828;SDS011;35723;51.194;5.112;2024-02-26T00:15:13;8.68;;;3.17;;
49828;SDS011;35723;51.194;5.112;2024-02-26T00:17:39;9.75;;;3.38;;
49828;SDS011;35723;51.194;5.112;2024-02-26T00:20:05;7.32;;;3.20;;
49828;SDS011;35723;51.194;5.112;2024-02-26T00:22:34;10.75;;;3.35;;
49828;SDS011;35723;51.194;5.112;2024-02-26T00:25:00;9.35;;;3.40;;
49828;SDS011;35723;51.194;5.112;2024-02-26T00:27:26;8.85;;;3.47;;
49828;SDS011;35723;51.194;5.112;2024-02-26T00:29:52;11.45;;;3.33;;
49828;SDS011;35723;51.194;5.112;2024-02-26T00:32:17;10.60;;;3.30;;
49828;SDS011;35723;51.194;5.112;2024-02-26T00:34:43;7.78;;;3.10;;
49828;SDS011;35723;51.194;5.112;2024-02-26T00:37:09;7.60;;;3.10;;
49828;SDS011;35723;51.194;5.112;2024-02-26T00:39:34;8.25;;;3.50;;
49828;SDS011;35723;51.194;5.112;2024-02-26T00:42:00;9.23;;;3.10;;
49828;SDS011;35723;51.194;5.112;2024-02-26T00:44:26;10.23;;;3.20;;
49828;SDS011;35723;51.194;5.112;2024-02-26T00:49:37;7.32;;;2.78;;
49828;SDS011;35723;51.194;5.112;2024-02-26T00:52:03;6.72;;;3.00;;
49828;SDS011;35723;51.194;5.112;2024-02-26T00:54:29;7.82;;;2.72;;
49828;SDS011;35723;51.194;5.112;2024-02-26T00:59:53;7.85;;;2.95;;
49828;SDS011;35723;51.194;5.112;2024-02-26T01:02:21;8.82;;;3.00;;
49828;SDS011;35723;51.194;5.112;2024-02-26T01:04:47;7.72;;;2.88;;
49828;SDS011;35723;51.194;5.112;2024-02-26T01:07:13;8.43;;;3.05;;
49828;SDS011;35723;51.194;5.112;2024-02-26T01:09:38;8.55;;;3.13;;
49828;SDS011;35723;51.194;5.112;2024-02-26T01:15:02;7.97;;;2.85;;
49828;SDS011;35723;51.194;5.112;2024-02-26T01:17:28;6.95;;;2.45;;
49828;SDS011;35723;51.194;5.112;2024-02-26T01:19:54;7.13;;;3.03;;
49828;SDS011;35723;51.194;5.112;2024-02-26T01:25:05;5.97;;;2.75;;
49828;SDS011;35723;51.194;5.112;2024-02-26T01:27:32;8.45;;;3.10;;
49828;SDS011;35723;51.194;5.112;2024-02-26T01:29:59;10.68;;;3.10;;
49828;SDS011;35723;51.194;5.112;2024-02-26T01:32:25;7.40;;;3.10;;
49828;SDS011;35723;51.194;5.112;2024-02-26T01:34:50;7.13;;;3.00;;
49828;SDS011;35723;51.194;5.112;2024-02-26T01:37:16;6.55;;;2.90;;
49828;SDS011;35723;51.194;5.112;2024-02-26T01:39:45;7.93;;;3.20;;
49828;SDS011;35723;51.194;5.112;2024-02-26T01:42:11;6.40;;;3.00;;
49828;SDS011;35723;51.194;5.112;2024-02-26T01:44:36;7.82;;;2.83;;
49828;SDS011;35723;51.194;5.112;2024-02-26T01:47:05;8.02;;;2.92;;
49828;SDS011;35723;51.194;5.112;2024-02-26T01:52:37;7.53;;;3.10;;
49828;SDS011;35723;51.194;5.112;2024-02-26T01:55:03;5.93;;;3.10;;
49828;SDS011;35723;51.194;5.112;2024-02-26T02:00:32;11.25;;;3.10;;
49828;SDS011;35723;51.194;5.112;2024-02-26T02:02:58;9.57;;;3.45;;
49828;SDS011;35723;51.194;5.112;2024-02-26T02:05:24;6.38;;;3.10;;
49828;SDS011;35723;51.194;5.112;2024-02-26T02:07:50;6.80;;;3.33;;
49828;SDS011;35723;51.194;5.112;2024-02-26T02:10:17;8.10;;;3.40;;
49828;SDS011;35723;51.194;5.112;2024-02-26T02:12:47;8.27;;;3.42;;
49828;SDS011;35723;51.194;5.112;2024-02-26T02:15:13;6.95;;;3.30;;
49828;SDS011;35723;51.194;5.112;2024-02-26T02:17:39;8.57;;;3.33;;
49828;SDS011;35723;51.194;5.112;2024-02-26T02:20:24;8.05;;;3.30;;
49828;SDS011;35723;51.194;5.112;2024-02-26T02:23:31;8.35;;;3.47;;
49828;SDS011;35723;51.194;5.112;2024-02-26T02:26:13;9.52;;;3.80;;
49828;SDS011;35723;51.194;5.112;2024-02-26T02:32:04;12.25;;;3.63;;
49828;SDS011;35723;51.194;5.112;2024-02-26T02:34:30;11.43;;;3.67;;
49828;SDS011;35723;51.194;5.112;2024-02-26T02:36:57;9.68;;;3.70;;
49828;SDS011;35723;51.194;5.112;2024-02-26T02:39:29;8.57;;;3.88;;
49828;SDS011;35723;51.194;5.112;2024-02-26T02:45:18;18.58;;;4.47;;
49828;SDS011;35723;51.194;5.112;2024-02-26T02:51:06;13.88;;;4.38;;
49828;SDS011;35723;51.194;5.112;2024-02-26T02:56:16;11.55;;;4.30;;
49828;SDS011;35723;51.194;5.112;2024-02-26T02:58:41;10.82;;;4.32;;
49828;SDS011;35723;51.194;5.112;2024-02-26T03:01:07;12.57;;;4.50;;
49828;SDS011;35723;51.194;5.112;2024-02-26T03:03:48;12.40;;;4.70;;
49828;SDS011;35723;51.194;5.112;2024-02-26T03:09:19;12.20;;;4.90;;
49828;SDS011;35723;51.194;5.112;2024-02-26T03:11:44;12.48;;;4.90;;
49828;SDS011;35723;51.194;5.112;2024-02-26T03:14:10;12.65;;;5.03;;
49828;SDS011;35723;51.194;5.112;2024-02-26T03:16:35;13.05;;;5.15;;
49828;SDS011;35723;51.194;5.112;2024-02-26T03:19:01;14.25;;;5.43;;
49828;SDS011;35723;51.194;5.112;2024-02-26T03:21:28;13.38;;;5.47;;
49828;SDS011;35723;51.194;5.112;2024-02-26T03:23:54;13.20;;;5.18;;
49828;SDS011;35723;51.194;5.112;2024-02-26T03:26:20;15.23;;;5.45;;
49828;SDS011;35723;51.194;5.112;2024-02-26T03:28:46;15.88;;;5.70;;
49828;SDS011;35723;51.194;5.112;2024-02-26T03:31:12;14.75;;;5.90;;
49828;SDS011;35723;51.194;5.112;2024-02-26T03:33:38;17.00;;;6.10;;
49828;SDS011;35723;51.194;5.112;2024-02-26T03:36:04;15.52;;;6.25;;
49828;SDS011;35723;51.194;5.112;2024-02-26T03:38:30;17.30;;;6.30;;
49828;SDS011;35723;51.194;5.112;2024-02-26T03:40:56;17.60;;;6.60;;
49828;SDS011;35723;51.194;5.112;2024-02-26T03:43:21;18.60;;;6.18;;
49828;SDS011;35723;51.194;5.112;2024-02-26T03:45:47;17.13;;;6.15;;
49828;SDS011;35723;51.194;5.112;2024-02-26T03:48:12;17.88;;;6.50;;
49828;SDS011;35723;51.194;5.112;2024-02-26T03:50:38;15.13;;;6.28;;
49828;SDS011;35723;51.194;5.112;2024-02-26T03:53:04;16.63;;;7.00;;
49828;SDS011;35723;51.194;5.112;2024-02-26T03:55:30;16.60;;;6.93;;
49828;SDS011;35723;51.194;5.112;2024-02-26T03:57:55;15.35;;;6.20;;
49828;SDS011;35723;51.194;5.112;2024-02-26T04:00:21;16.23;;;6.43;;
49828;SDS011;35723;51.194;5.112;2024-02-26T04:02:49;14.70;;;6.53;;
49828;SDS011;35723;51.194;5.112;2024-02-26T04:08:37;15.82;;;6.70;;
49828;SDS011;35723;51.194;5.112;2024-02-26T04:11:03;14.80;;;6.95;;
49828;SDS011;35723;51.194;5.112;2024-02-26T04:13:35;15.57;;;6.35;;
49828;SDS011;35723;51.194;5.112;2024-02-26T04:16:03;14.43;;;6.70;;
49828;SDS011;35723;51.194;5.112;2024-02-26T04:18:30;16.50;;;6.70;;
49828;SDS011;35723;51.194;5.112;2024-02-26T04:20:57;15.13;;;6.50;;
49828;SDS011;35723;51.194;5.112;2024-02-26T04:23:23;15.40;;;6.75;;
49828;SDS011;35723;51.194;5.112;2024-02-26T04:28:35;19.25;;;6.97;;
49828;SDS011;35723;51.194;5.112;2024-02-26T04:31:01;15.77;;;7.32;;
49828;SDS011;35723;51.194;5.112;2024-02-26T04:33:27;15.02;;;6.65;;
49828;SDS011;35723;51.194;5.112;2024-02-26T04:35:52;14.25;;;7.18;;
49828;SDS011;35723;51.194;5.112;2024-02-26T04:38:18;14.82;;;6.50;;
49828;SDS011;35723;51.194;5.112;2024-02-26T04:40:44;14.57;;;6.47;;
49828;SDS011;35723;51.194;5.112;2024-02-26T04:43:10;14.07;;;6.60;;
49828;SDS011;35723;51.194;5.112;2024-02-26T04:48:58;15.07;;;6.55;;
49828;SDS011;35723;51.194;5.112;2024-02-26T04:51:24;14.80;;;6.47;;
49828;SDS011;35723;51.194;5.112;2024-02-26T04:53:49;13.45;;;6.65;;
49828;SDS011;35723;51.194;5.112;2024-02-26T04:56:15;15.55;;;7.22;;
49828;SDS011;35723;51.194;5.112;2024-02-26T04:58:40;14.27;;;6.85;;
49828;SDS011;35723;51.194;5.112;2024-02-26T05:01:06;13.50;;;6.20;;
49828;SDS011;35723;51.194;5.112;2024-02-26T05:03:32;14.55;;;6.38;;
49828;SDS011;35723;51.194;5.112;2024-02-26T05:05:57;15.25;;;6.15;;
49828;SDS011;35723;51.194;5.112;2024-02-26T05:11:26;14.52;;;6.43;;
49828;SDS011;35723;51.194;5.112;2024-02-26T05:13:52;15.40;;;6.35;;
49828;SDS011;35723;51.194;5.112;2024-02-26T05:22:24;14.13;;;6.00;;
49828;SDS011;35723;51.194;5.112;2024-02-26T05:24:50;13.98;;;6.30;;
49828;SDS011;35723;51.194;5.112;2024-02-26T05:30:24;16.10;;;6.50;;
49828;SDS011;35723;51.194;5.112;2024-02-26T05:32:53;12.52;;;5.72;;
49828;SDS011;35723;51.194;5.112;2024-02-26T05:35:18;14.00;;;6.00;;
49828;SDS011;35723;51.194;5.112;2024-02-26T05:37:44;15.00;;;6.10;;
49828;SDS011;35723;51.194;5.112;2024-02-26T05:40:10;14.43;;;6.32;;
49828;SDS011;35723;51.194;5.112;2024-02-26T05:42:36;13.93;;;6.35;;
49828;SDS011;35723;51.194;5.112;2024-02-26T05:45:02;14.20;;;6.30;;
49828;SDS011;35723;51.194;5.112;2024-02-26T05:47:32;13.55;;;6.22;;
49828;SDS011;35723;51.194;5.112;2024-02-26T05:49:58;14.13;;;6.30;;
49828;SDS011;35723;51.194;5.112;2024-02-26T05:52:25;13.93;;;6.35;;
49828;SDS011;35723;51.194;5.112;2024-02-26T05:54:51;15.13;;;6.88;;
49828;SDS011;35723;51.194;5.112;2024-02-26T05:57:17;14.32;;;6.93;;
49828;SDS011;35723;51.194;5.112;2024-02-26T05:59:43;15.93;;;7.32;;
49828;SDS011;35723;51.194;5.112;2024-02-26T06:02:09;13.93;;;6.47;;
49828;SDS011;35723;51.194;5.112;2024-02-26T06:04:35;16.55;;;7.70;;
49828;SDS011;35723;51.194;5.112;2024-02-26T06:07:00;15.10;;;7.03;;
49828;SDS011;35723;51.194;5.112;2024-02-26T06:09:26;16.65;;;7.25;;
49828;SDS011;35723;51.194;5.112;2024-02-26T06:11:52;15.80;;;6.53;;
49828;SDS011;35723;51.194;5.112;2024-02-26T06:14:17;15.85;;;7.28;;
49828;SDS011;35723;51.194;5.112;2024-02-26T06:16:44;15.55;;;7.15;;
49828;SDS011;35723;51.194;5.112;2024-02-26T06:19:10;14.68;;;7.00;;
49828;SDS011;35723;51.194;5.112;2024-02-26T06:21:35;16.15;;;7.75;;
49828;SDS011;35723;51.194;5.112;2024-02-26T06:24:02;17.23;;;7.57;;
49828;SDS011;35723;51.194;5.112;2024-02-26T06:26:28;16.42;;;8.00;;
49828;SDS011;35723;51.194;5.112;2024-02-26T06:28:54;14.93;;;7.03;;
49828;SDS011;35723;51.194;5.112;2024-02-26T06:31:21;15.05;;;7.38;;
49828;SDS011;35723;51.194;5.112;2024-02-26T06:33:48;15.55;;;7.38;;
49828;SDS011;35723;51.194;5.112;2024-02-26T06:36:15;18.85;;;7.22;;
49828;SDS011;35723;51.194;5.112;2024-02-26T06:38:40;15.55;;;7.57;;
49828;SDS011;35723;51.194;5.112;2024-02-26T06:41:06;17.52;;;8.25;;
49828;SDS011;35723;51.194;5.112;2024-02-26T06:43:32;15.70;;;7.63;;
49828;SDS011;35723;51.194;5.112;2024-02-26T06:45:57;14.65;;;7.35;;
49828;SDS011;35723;51.194;5.112;2024-02-26T06:48:23;15.05;;;7.22;;
49828;SDS011;35723;51.194;5.112;2024-02-26T06:50:49;16.27;;;7.25;;
49828;SDS011;35723;51.194;5.112;2024-02-26T06:53:15;14.60;;;6.88;;
49828;SDS011;35723;51.194;5.112;2024-02-26T06:55:43;15.60;;;6.60;;
49828;SDS011;35723;51.194;5.112;2024-02-26T06:58:10;13.68;;;7.18;;
49828;SDS011;35723;51.194;5.112;2024-02-26T07:00:35;14.68;;;6.57;;
49828;SDS011;35723;51.194;5.112;2024-02-26T07:03:01;14.32;;;7.32;;
49828;SDS011;35723;51.194;5.112;2024-02-26T07:05:27;14.50;;;6.80;;
49828;SDS011;35723;51.194;5.112;2024-02-26T07:07:53;15.95;;;6.78;;
49828;SDS011;35723;51.194;5.112;2024-02-26T07:10:18;15.73;;;6.60;;
49828;SDS011;35723;51.194;5.112;2024-02-26T07:12:44;13.82;;;6.75;;
49828;SDS011;35723;51.194;5.112;2024-02-26T07:15:09;15.25;;;6.88;;
49828;SDS011;35723;51.194;5.112;2024-02-26T07:17:35;14.52;;;7.13;;
49828;SDS011;35723;51.194;5.112;2024-02-26T07:20:01;15.30;;;6.95;;
49828;SDS011;35723;51.194;5.112;2024-02-26T07:25:51;15.27;;;6.53;;
49828;SDS011;35723;51.194;5.112;2024-02-26T07:28:18;14.45;;;6.72;;
49828;SDS011;35723;51.194;5.112;2024-02-26T07:30:44;15.23;;;6.78;;
49828;SDS011;35723;51.194;5.112;2024-02-26T07:33:10;14.57;;;6.93;;
49828;SDS011;35723;51.194;5.112;2024-02-26T07:35:35;15.20;;;6.80;;
49828;SDS011;35723;51.194;5.112;2024-02-26T07:38:03;14.25;;;6.90;;
49828;SDS011;35723;51.194;5.112;2024-02-26T07:40:29;15.95;;;6.43;;
49828;SDS011;35723;51.194;5.112;2024-02-26T07:42:55;14.70;;;6.90;;
49828;SDS011;35723;51.194;5.112;2024-02-26T07:45:21;15.45;;;6.72;;
49828;SDS011;35723;51.194;5.112;2024-02-26T07:47:47;14.23;;;6.88;;
49828;SDS011;35723;51.194;5.112;2024-02-26T07:50:15;12.38;;;6.50;;
49828;SDS011;35723;51.194;5.112;2024-02-26T07:52:43;17.00;;;7.10;;
49828;SDS011;35723;51.194;5.112;2024-02-26T07:55:09;14.05;;;6.97;;
49828;SDS011;35723;51.194;5.112;2024-02-26T07:57:35;15.77;;;7.10;;
49828;SDS011;35723;51.194;5.112;2024-02-26T08:00:02;14.98;;;7.30;;
49828;SDS011;35723;51.194;5.112;2024-02-26T08:02:28;13.98;;;7.10;;
49828;SDS011;35723;51.194;5.112;2024-02-26T08:04:54;15.63;;;7.53;;
49828;SDS011;35723;51.194;5.112;2024-02-26T08:07:19;16.63;;;7.78;;
49828;SDS011;35723;51.194;5.112;2024-02-26T08:09:55;15.98;;;7.68;;
49828;SDS011;35723;51.194;5.112;2024-02-26T08:12:21;18.05;;;7.65;;
49828;SDS011;35723;51.194;5.112;2024-02-26T08:14:46;14.85;;;7.97;;
49828;SDS011;35723;51.194;5.112;2024-02-26T08:17:12;15.10;;;7.50;;
49828;SDS011;35723;51.194;5.112;2024-02-26T08:19:37;16.05;;;7.60;;
49828;SDS011;35723;51.194;5.112;2024-02-26T08:22:03;15.45;;;7.32;;
49828;SDS011;35723;51.194;5.112;2024-02-26T08:24:29;15.20;;;7.55;;
49828;SDS011;35723;51.194;5.112;2024-02-26T08:27:06;15.52;;;7.30;;
49828;SDS011;35723;51.194;5.112;2024-02-26T08:29:32;16.17;;;7.30;;
49828;SDS011;35723;51.194;5.112;2024-02-26T08:31:57;19.15;;;7.88;;
49828;SDS011;35723;51.194;5.112;2024-02-26T08:34:23;15.73;;;7.90;;
49828;SDS011;35723;51.194;5.112;2024-02-26T08:36:49;15.02;;;7.47;;
49828;SDS011;35723;51.194;5.112;2024-02-26T08:39:15;15.32;;;7.80;;
49828;SDS011;35723;51.194;5.112;2024-02-26T08:41:42;16.63;;;8.25;;
49828;SDS011;35723;51.194;5.112;2024-02-26T08:44:11;16.55;;;8.65;;
49828;SDS011;35723;51.194;5.112;2024-02-26T08:46:36;15.77;;;7.90;;
49828;SDS011;35723;51.194;5.112;2024-02-26T08:49:02;16.13;;;8.30;;
49828;SDS011;35723;51.194;5.112;2024-02-26T08:51:28;17.50;;;8.45;;
49828;SDS011;35723;51.194;5.112;2024-02-26T08:53:54;17.50;;;8.80;;
49828;SDS011;35723;51.194;5.112;2024-02-26T09:04:06;17.05;;;8.65;;
49828;SDS011;35723;51.194;5.112;2024-02-26T09:06:31;18.90;;;9.65;;
49828;SDS011;35723;51.194;5.112;2024-02-26T09:08:57;16.27;;;8.40;;
49828;SDS011;35723;51.194;5.112;2024-02-26T09:11:22;19.00;;;8.90;;
49828;SDS011;35723;51.194;5.112;2024-02-26T09:13:48;19.08;;;8.50;;
49828;SDS011;35723;51.194;5.112;2024-02-26T09:16:14;17.27;;;8.18;;
49828;SDS011;35723;51.194;5.112;2024-02-26T09:21:44;16.23;;;7.97;;
49828;SDS011;35723;51.194;5.112;2024-02-26T09:24:10;16.38;;;7.50;;
49828;SDS011;35723;51.194;5.112;2024-02-26T09:26:37;18.60;;;8.35;;
49828;SDS011;35723;51.194;5.112;2024-02-26T09:29:03;16.27;;;7.97;;
49828;SDS011;35723;51.194;5.112;2024-02-26T09:31:29;17.13;;;7.70;;
49828;SDS011;35723;51.194;5.112;2024-02-26T09:33:55;18.90;;;7.57;;
49828;SDS011;35723;51.194;5.112;2024-02-26T09:36:21;13.70;;;6.88;;
49828;SDS011;35723;51.194;5.112;2024-02-26T09:38:47;16.73;;;7.60;;
49828;SDS011;35723;51.194;5.112;2024-02-26T09:41:14;15.65;;;7.60;;
49828;SDS011;35723;51.194;5.112;2024-02-26T09:43:41;15.75;;;7.50;;
49828;SDS011;35723;51.194;5.112;2024-02-26T09:46:10;16.13;;;7.70;;
49828;SDS011;35723;51.194;5.112;2024-02-26T09:48:35;15.60;;;7.40;;
49828;SDS011;35723;51.194;5.112;2024-02-26T09:51:02;15.27;;;7.53;;
49828;SDS011;35723;51.194;5.112;2024-02-26T09:53:29;16.10;;;7.72;;
49828;SDS011;35723;51.194;5.112;2024-02-26T09:55:59;15.93;;;7.43;;
49828;SDS011;35723;51.194;5.112;2024-02-26T09:58:26;17.90;;;7.53;;
49828;SDS011;35723;51.194;5.112;2024-02-26T10:00:55;15.77;;;7.45;;
49828;SDS011;35723;51.194;5.112;2024-02-26T10:03:25;18.80;;;8.00;;
49828;SDS011;35723;51.194;5.112;2024-02-26T10:06:37;16.15;;;7.00;;
49828;SDS011;35723;51.194;5.112;2024-02-26T10:09:03;16.80;;;7.80;;
49828;SDS011;35723;51.194;5.112;2024-02-26T10:11:32;15.45;;;7.30;;
49828;SDS011;35723;51.194;5.112;2024-02-26T10:13:58;16.85;;;7.32;;
49828;SDS011;35723;51.194;5.112;2024-02-26T10:16:24;15.50;;;7.57;;
49828;SDS011;35723;51.194;5.112;2024-02-26T10:18:51;18.10;;;7.88;;
49828;SDS011;35723;51.194;5.112;2024-02-26T10:21:22;16.10;;;7.30;;
49828;SDS011;35723;51.194;5.112;2024-02-26T10:23:49;16.10;;;7.50;;
49828;SDS011;35723;51.194;5.112;2024-02-26T10:26:19;15.45;;;7.78;;
49828;SDS011;35723;51.194;5.112;2024-02-26T10:28:45;16.27;;;7.80;;
49828;SDS011;35723;51.194;5.112;2024-02-26T10:31:13;17.30;;;8.23;;
49828;SDS011;35723;51.194;5.112;2024-02-26T10:33:39;16.88;;;8.25;;
49828;SDS011;35723;51.194;5.112;2024-02-26T10:36:07;17.48;;;8.15;;
49828;SDS011;35723;51.194;5.112;2024-02-26T10:38:34;17.65;;;8.30;;
49828;SDS011;35723;51.194;5.112;2024-02-26T10:41:04;16.55;;;7.72;;
49828;SDS011;35723;51.194;5.112;2024-02-26T10:43:37;20.00;;;8.80;;
49828;SDS011;35723;51.194;5.112;2024-02-26T10:46:03;16.08;;;7.85;;
49828;SDS011;35723;51.194;5.112;2024-02-26T10:48:29;17.77;;;8.25;;
49828;SDS011;35723;51.194;5.112;2024-02-26T10:50:57;17.60;;;8.50;;
49828;SDS011;35723;51.194;5.112;2024-02-26T10:56:56;18.83;;;8.32;;
49828;SDS011;35723;51.194;5.112;2024-02-26T10:59:24;18.20;;;8.40;;
49828;SDS011;35723;51.194;5.112;2024-02-26T11:01:51;18.23;;;8.75;;
49828;SDS011;35723;51.194;5.112;2024-02-26T11:07:39;18.60;;;8.57;;
49828;SDS011;35723;51.194;5.112;2024-02-26T11:10:07;17.60;;;8.80;;
49828;SDS011;35723;51.194;5.112;2024-02-26T11:12:34;16.73;;;8.93;;
49828;SDS011;35723;51.194;5.112;2024-02-26T11:15:02;16.95;;;8.63;;
49828;SDS011;35723;51.194;5.112;2024-02-26T11:17:29;16.33;;;8.30;;
49828;SDS011;35723;51.194;5.112;2024-02-26T11:19:58;17.65;;;8.43;;
49828;SDS011;35723;51.194;5.112;2024-02-26T11:22:25;17.35;;;8.35;;
49828;SDS011;35723;51.194;5.112;2024-02-26T11:24:54;18.50;;;8.23;;
49828;SDS011;35723;51.194;5.112;2024-02-26T11:28:00;18.05;;;8.70;;
49828;SDS011;35723;51.194;5.112;2024-02-26T11:30:19;15.60;;;7.65;;
49828;SDS011;35723;51.194;5.112;2024-02-26T11:32:47;18.02;;;8.20;;
49828;SDS011;35723;51.194;5.112;2024-02-26T11:35:13;17.80;;;7.97;;
49828;SDS011;35723;51.194;5.112;2024-02-26T11:37:41;16.23;;;7.47;;
49828;SDS011;35723;51.194;5.112;2024-02-26T11:40:21;16.20;;;8.05;;
49828;SDS011;35723;51.194;5.112;2024-02-26T11:42:48;17.23;;;7.55;;
49828;SDS011;35723;51.194;5.112;2024-02-26T11:48:11;14.40;;;7.03;;
49828;SDS011;35723;51.194;5.112;2024-02-26T11:50:47;17.00;;;7.25;;
49828;SDS011;35723;51.194;5.112;2024-02-26T11:59:11;15.60;;;7.70;;
49828;SDS011;35723;51.194;5.112;2024-02-26T12:06:56;16.60;;;7.65;;
49828;SDS011;35723;51.194;5.112;2024-02-26T12:09:31;17.30;;;8.30;;
49828;SDS011;35723;51.194;5.112;2024-02-26T12:11:58;18.10;;;8.60;;
49828;SDS011;35723;51.194;5.112;2024-02-26T12:14:25;19.48;;;8.93;;
49828;SDS011;35723;51.194;5.112;2024-02-26T12:16:52;19.60;;;8.93;;
49828;SDS011;35723;51.194;5.112;2024-02-26T12:19:22;20.33;;;9.77;;
49828;SDS011;35723;51.194;5.112;2024-02-26T12:21:52;20.38;;;10.35;;
49828;SDS011;35723;51.194;5.112;2024-02-26T12:24:21;21.73;;;10.43;;
49828;SDS011;35723;51.194;5.112;2024-02-26T12:26:47;19.95;;;10.20;;
49828;SDS011;35723;51.194;5.112;2024-02-26T12:29:13;23.17;;;10.40;;
49828;SDS011;35723;51.194;5.112;2024-02-26T12:31:39;20.38;;;10.27;;
49828;SDS011;35723;51.194;5.112;2024-02-26T12:34:06;21.90;;;10.40;;
49828;SDS011;35723;51.194;5.112;2024-02-26T12:36:33;20.17;;;10.35;;
49828;SDS011;35723;51.194;5.112;2024-02-26T12:39:00;20.48;;;10.13;;
49828;SDS011;35723;51.194;5.112;2024-02-26T12:41:27;20.90;;;10.18;;
49828;SDS011;35723;51.194;5.112;2024-02-26T12:43:55;21.58;;;10.90;;
49828;SDS011;35723;51.194;5.112;2024-02-26T12:46:22;20.90;;;10.50;;
49828;SDS011;35723;51.194;5.112;2024-02-26T12:48:48;24.38;;;11.32;;
49828;SDS011;35723;51.194;5.112;2024-02-26T12:51:14;22.05;;;11.52;;
49828;SDS011;35723;51.194;5.112;2024-02-26T12:53:41;23.48;;;11.73;;
49828;SDS011;35723;51.194;5.112;2024-02-26T12:56:08;22.88;;;11.57;;
49828;SDS011;35723;51.194;5.112;2024-02-26T12:58:35;24.08;;;12.77;;
49828;SDS011;35723;51.194;5.112;2024-02-26T13:01:04;23.92;;;12.10;;
49828;SDS011;35723;51.194;5.112;2024-02-26T13:03:30;24.17;;;12.55;;
49828;SDS011;35723;51.194;5.112;2024-02-26T13:09:02;24.35;;;11.88;;
49828;SDS011;35723;51.194;5.112;2024-02-26T13:11:28;23.08;;;11.48;;
49828;SDS011;35723;51.194;5.112;2024-02-26T13:13:54;24.45;;;12.63;;
49828;SDS011;35723;51.194;5.112;2024-02-26T13:16:20;25.33;;;12.07;;
49828;SDS011;35723;51.194;5.112;2024-02-26T13:18:57;25.90;;;12.50;;
49828;SDS011;35723;51.194;5.112;2024-02-26T13:22:05;25.27;;;12.10;;
49828;SDS011;35723;51.194;5.112;2024-02-26T13:24:32;25.15;;;11.80;;
49828;SDS011;35723;51.194;5.112;2024-02-26T13:27:00;26.77;;;12.88;;
49828;SDS011;35723;51.194;5.112;2024-02-26T13:29:28;27.95;;;13.48;;
49828;SDS011;35723;51.194;5.112;2024-02-26T13:31:55;26.48;;;13.75;;
49828;SDS011;35723;51.194;5.112;2024-02-26T13:34:23;26.60;;;13.40;;
49828;SDS011;35723;51.194;5.112;2024-02-26T13:36:50;26.65;;;12.88;;
49828;SDS011;35723;51.194;5.112;2024-02-26T13:39:26;25.83;;;13.07;;
49828;SDS011;35723;51.194;5.112;2024-02-26T13:41:52;27.40;;;12.73;;
49828;SDS011;35723;51.194;5.112;2024-02-26T13:44:19;29.23;;;13.20;;
49828;SDS011;35723;51.194;5.112;2024-02-26T13:46:46;26.63;;;13.15;;
49828;SDS011;35723;51.194;5.112;2024-02-26T13:49:12;27.95;;;13.25;;
49828;SDS011;35723;51.194;5.112;2024-02-26T13:51:38;27.05;;;13.00;;
49828;SDS011;35723;51.194;5.112;2024-02-26T13:54:04;24.58;;;12.10;;
49828;SDS011;35723;51.194;5.112;2024-02-26T13:56:30;25.73;;;12.50;;
49828;SDS011;35723;51.194;5.112;2024-02-26T13:59:01;24.85;;;11.70;;
49828;SDS011;35723;51.194;5.112;2024-02-26T14:04:50;27.02;;;11.32;;
49828;SDS011;35723;51.194;5.112;2024-02-26T14:10:37;26.05;;;11.15;;
49828;SDS011;35723;51.194;5.112;2024-02-26T14:13:03;25.70;;;11.10;;
49828;SDS011;35723;51.194;5.112;2024-02-26T14:15:29;25.27;;;11.23;;
49828;SDS011;35723;51.194;5.112;2024-02-26T14:17:55;24.25;;;10.70;;
49828;SDS011;35723;51.194;5.112;2024-02-26T14:20:21;24.55;;;10.93;;
49828;SDS011;35723;51.194;5.112;2024-02-26T14:22:48;24.98;;;11.43;;
49828;SDS011;35723;51.194;5.112;2024-02-26T14:25:16;27.13;;;12.05;;
49828;SDS011;35723;51.194;5.112;2024-02-26T14:27:42;27.83;;;12.82;;
49828;SDS011;35723;51.194;5.112;2024-02-26T14:30:07;29.77;;;12.52;;
49828;SDS011;35723;51.194;5.112;2024-02-26T14:35:55;27.23;;;10.98;;
49828;SDS011;35723;51.194;5.112;2024-02-26T14:38:21;26.83;;;11.93;;
49828;SDS011;35723;51.194;5.112;2024-02-26T14:40:48;28.13;;;11.48;;
49828;SDS011;35723;51.194;5.112;2024-02-26T14:43:14;25.05;;;11.13;;
49828;SDS011;35723;51.194;5.112;2024-02-26T14:45:40;24.02;;;10.30;;
49828;SDS011;35723;51.194;5.112;2024-02-26T14:48:05;24.98;;;11.32;;
49828;SDS011;35723;51.194;5.112;2024-02-26T14:54:00;22.73;;;10.18;;
49828;SDS011;35723;51.194;5.112;2024-02-26T14:56:27;22.80;;;10.30;;
49828;SDS011;35723;51.194;5.112;2024-02-26T14:58:53;24.10;;;10.30;;
49828;SDS011;35723;51.194;5.112;2024-02-26T15:01:18;23.52;;;10.02;;
49828;SDS011;35723;51.194;5.112;2024-02-26T15:03:44;23.75;;;10.75;;
49828;SDS011;35723;51.194;5.112;2024-02-26T15:06:10;22.40;;;9.65;;
49828;SDS011;35723;51.194;5.112;2024-02-26T15:08:42;22.90;;;9.93;;
49828;SDS011;35723;51.194;5.112;2024-02-26T15:14:11;22.15;;;9.85;;
49828;SDS011;35723;51.194;5.112;2024-02-26T15:16:37;22.90;;;9.75;;
49828;SDS011;35723;51.194;5.112;2024-02-26T15:19:02;21.83;;;9.70;;
49828;SDS011;35723;51.194;5.112;2024-02-26T15:21:29;19.65;;;9.15;;
49828;SDS011;35723;51.194;5.112;2024-02-26T15:23:54;20.00;;;8.75;;
49828;SDS011;35723;51.194;5.112;2024-02-26T15:26:24;21.23;;;9.43;;
49828;SDS011;35723;51.194;5.112;2024-02-26T15:28:51;20.63;;;8.77;;
49828;SDS011;35723;51.194;5.112;2024-02-26T15:31:17;19.85;;;8.88;;
49828;SDS011;35723;51.194;5.112;2024-02-26T15:36:49;19.25;;;8.43;;
49828;SDS011;35723;51.194;5.112;2024-02-26T15:39:14;19.52;;;8.25;;
49828;SDS011;35723;51.194;5.112;2024-02-26T15:41:40;19.75;;;8.52;;
49828;SDS011;35723;51.194;5.112;2024-02-26T15:44:06;20.13;;;9.00;;
49828;SDS011;35723;51.194;5.112;2024-02-26T15:46:31;19.13;;;8.55;;
49828;SDS011;35723;51.194;5.112;2024-02-26T15:48:57;20.15;;;9.02;;
49828;SDS011;35723;51.194;5.112;2024-02-26T15:51:23;21.35;;;9.00;;
49828;SDS011;35723;51.194;5.112;2024-02-26T15:53:49;20.42;;;8.45;;
49828;SDS011;35723;51.194;5.112;2024-02-26T15:56:15;19.80;;;8.85;;
49828;SDS011;35723;51.194;5.112;2024-02-26T15:58:41;21.70;;;9.00;;
49828;SDS011;35723;51.194;5.112;2024-02-26T16:01:07;19.67;;;9.00;;
49828;SDS011;35723;51.194;5.112;2024-02-26T16:10:19;21.63;;;9.25;;
49828;SDS011;35723;51.194;5.112;2024-02-26T16:16:02;20.08;;;9.48;;
49828;SDS011;35723;51.194;5.112;2024-02-26T16:18:35;21.98;;;9.35;;
49828;SDS011;35723;51.194;5.112;2024-02-26T16:21:01;21.02;;;9.63;;
49828;SDS011;35723;51.194;5.112;2024-02-26T16:23:27;21.65;;;9.77;;
49828;SDS011;35723;51.194;5.112;2024-02-26T16:25:52;21.13;;;9.40;;
49828;SDS011;35723;51.194;5.112;2024-02-26T16:28:19;22.77;;;9.77;;
49828;SDS011;35723;51.194;5.112;2024-02-26T16:30:49;22.98;;;10.23;;
49828;SDS011;35723;51.194;5.112;2024-02-26T16:33:15;23.77;;;10.43;;
49828;SDS011;35723;51.194;5.112;2024-02-26T16:35:44;23.45;;;9.75;;